New Orleans, Louisiana
Traffic Map
Current Weather Conditions
New Orleans, Louisiana
Broken Clouds
Broken Clouds
26°
Feels Like: 28°
Wind Chill: 26° Ceiling: 3900
Heat Index: 28° Visibility: 10mi
Dew Point: 22° Wind: 0mph
Humidity: 78% Direction: ° ()
Pressure: 30.02in Gusts: 0mph
Raw Report DataKVSH 012055Z AUTO 00000KT 10SM FEW010 SCT028 BKN039 26/22 A3002 RMK AO1 P0028 60031 57010
Traffic Incident Summary
Active as of:
Severity:
Category:
InformationThere was an issue retrieving the traffic information for this location. Please try a different location or try again shortly.
Advertisements
Track Severe Weather on mobile